Time;durP1;ratioP1;P1;durP2;ratioP2;P2;SDS_P1;SDS_P2;PMS_P1;PMS_P2;Temp;Humidity;BMP_temperature;BMP_pressure;BME280_temperature;BME280_humidity;BME280_pressure;Samples;Min_cycle;Max_cycle;Signal;HPM_P1;HPM_P2
2024/01/10 00:00:14;;;;;;;10.50;4.03;;;;;;;;;;5010336;28;20042;-80
2024/01/10 00:02:40;;;;;;;10.55;5.03;;;;;;;;;;5011668;28;20048;-80
2024/01/10 00:05:05;;;;;;;10.43;4.93;;;;;;;;;;5010573;28;20227;-81
2024/01/10 00:07:31;;;;;;;17.15;3.28;;;;;;;;;;5009871;28;20033;-80
2024/01/10 00:09:57;;;;;;;5.82;2.97;;;;;;;;;;5011427;28;20367;-80
2024/01/10 00:12:23;;;;;;;10.52;3.95;;;;;;;;;;5009832;28;20029;-80
2024/01/10 00:14:48;;;;;;;9.82;4.15;;;;;;;;;;5010397;28;20042;-80
2024/01/10 00:17:13;;;;;;;8.63;3.08;;;;;;;;;;5009814;28;20054;-80
2024/01/10 00:19:39;;;;;;;4.38;1.80;;;;;;;;;;5016580;28;20045;-81
2024/01/10 00:22:04;;;;;;;7.72;3.70;;;;;;;;;;5028899;28;20040;-80
2024/01/10 00:24:30;;;;;;;5.18;1.98;;;;;;;;;;5029400;28;20113;-80
2024/01/10 00:26:55;;;;;;;9.07;4.35;;;;;;;;;;5030583;28;20055;-80
2024/01/10 00:29:20;;;;;;;9.07;3.63;;;;;;;;;;5030391;28;20041;-80
2024/01/10 00:31:46;;;;;;;5.85;2.85;;;;;;;;;;5030403;28;20044;-80
2024/01/10 00:34:11;;;;;;;4.28;2.25;;;;;;;;;;5030347;28;20021;-80
2024/01/10 00:36:36;;;;;;;8.45;3.17;;;;;;;;;;5034958;28;20025;-80
2024/01/10 00:39:02;;;;;;;10.20;4.47;;;;;;;;;;5042743;28;20037;-81
2024/01/10 00:41:27;;;;;;;8.70;3.45;;;;;;;;;;5039745;28;20033;-80
2024/01/10 00:43:53;;;;;;;8.45;3.42;;;;;;;;;;5013783;28;20058;-81
2024/01/10 00:46:18;;;;;;;13.88;4.45;;;;;;;;;;5010126;28;20034;-80
2024/01/10 00:48:44;;;;;;;15.43;5.32;;;;;;;;;;5009436;28;20480;-82
2024/01/10 00:51:10;;;;;;;6.57;3.45;;;;;;;;;;5009047;28;20065;-80
2024/01/10 00:53:35;;;;;;;10.18;3.95;;;;;;;;;;5008619;28;20045;-80
2024/01/10 00:56:00;;;;;;;10.30;2.40;;;;;;;;;;5009905;28;20038;-81
2024/01/10 00:58:26;;;;;;;8.27;3.97;;;;;;;;;;5009643;28;20101;-81
2024/01/10 01:00:51;;;;;;;13.27;4.20;;;;;;;;;;5008511;28;20513;-80
2024/01/10 01:03:16;;;;;;;8.60;3.53;;;;;;;;;;5007576;28;20038;-81
2024/01/10 01:05:42;;;;;;;9.63;3.53;;;;;;;;;;5009250;28;20544;-80
2024/01/10 01:08:07;;;;;;;14.55;4.95;;;;;;;;;;5009737;28;20037;-81
2024/01/10 01:10:33;;;;;;;6.40;3.40;;;;;;;;;;5007914;28;20049;-80
2024/01/10 01:12:59;;;;;;;12.43;4.70;;;;;;;;;;5006495;28;20034;-80
2024/01/10 01:15:24;;;;;;;12.15;4.75;;;;;;;;;;5008607;28;20450;-81
2024/01/10 01:17:50;;;;;;;7.47;4.63;;;;;;;;;;5008132;28;20073;-81
2024/01/10 01:20:15;;;;;;;13.00;4.30;;;;;;;;;;5008051;28;20037;-81
2024/01/10 01:22:40;;;;;;;7.32;3.75;;;;;;;;;;5009395;28;20671;-81
2024/01/10 01:25:06;;;;;;;11.25;4.50;;;;;;;;;;5008733;28;20033;-81
2024/01/10 01:27:32;;;;;;;12.55;3.83;;;;;;;;;;5009666;28;20033;-81
2024/01/10 01:29:57;;;;;;;12.90;5.88;;;;;;;;;;5008829;28;20034;-81
2024/01/10 01:32:22;;;;;;;6.60;2.78;;;;;;;;;;5010181;28;20090;-81
2024/01/10 01:34:48;;;;;;;8.20;3.40;;;;;;;;;;5027555;28;20034;-81
2024/01/10 01:37:13;;;;;;;9.77;3.08;;;;;;;;;;5028671;28;20033;-81
2024/01/10 01:39:39;;;;;;;11.43;3.83;;;;;;;;;;5045160;28;20037;-81
2024/01/10 01:42:04;;;;;;;9.32;3.38;;;;;;;;;;5041113;28;20527;-81
2024/01/10 01:44:31;;;;;;;8.00;3.75;;;;;;;;;;5009405;28;20096;-81
2024/01/10 01:46:57;;;;;;;10.75;4.22;;;;;;;;;;5009361;28;20071;-81
2024/01/10 01:49:25;;;;;;;8.57;4.05;;;;;;;;;;5008133;28;20029;-81
2024/01/10 01:51:51;;;;;;;10.98;4.93;;;;;;;;;;5008539;28;20033;-81
2024/01/10 01:54:17;;;;;;;9.23;3.40;;;;;;;;;;5010779;28;20513;-81
2024/01/10 01:56:44;;;;;;;9.88;3.78;;;;;;;;;;5016850;28;20049;-81
2024/01/10 01:59:11;;;;;;;14.07;4.65;;;;;;;;;;5024178;28;20128;-81
2024/01/10 02:01:36;;;;;;;7.53;3.63;;;;;;;;;;5017491;28;20034;-81
2024/01/10 02:04:02;;;;;;;5.20;2.90;;;;;;;;;;5009457;28;20421;-81
2024/01/10 02:06:31;;;;;;;13.52;3.60;;;;;;;;;;5008684;28;20037;-81
2024/01/10 02:08:57;;;;;;;6.60;3.63;;;;;;;;;;5007569;28;20101;-81
2024/01/10 02:11:24;;;;;;;10.07;3.60;;;;;;;;;;5008739;28;20052;-81
2024/01/10 02:13:49;;;;;;;5.70;2.85;;;;;;;;;;5009325;28;20071;-81
2024/01/10 02:16:15;;;;;;;10.05;3.75;;;;;;;;;;5007916;28;20034;-81
2024/01/10 02:18:40;;;;;;;7.70;3.40;;;;;;;;;;5008338;28;20026;-82
2024/01/10 02:21:05;;;;;;;10.55;4.78;;;;;;;;;;5007307;28;20426;-81
2024/01/10 02:23:31;;;;;;;8.50;3.95;;;;;;;;;;5008822;28;20042;-81
2024/01/10 02:25:57;;;;;;;14.10;5.55;;;;;;;;;;5010927;28;20475;-81
2024/01/10 02:28:25;;;;;;;11.77;4.05;;;;;;;;;;5012818;28;20091;-81
2024/01/10 02:30:52;;;;;;;9.60;3.60;;;;;;;;;;5013379;28;20022;-80
2024/01/10 02:33:18;;;;;;;7.28;3.53;;;;;;;;;;5012639;28;20499;-81
2024/01/10 02:35:43;;;;;;;12.18;5.13;;;;;;;;;;5011456;28;20038;-81
2024/01/10 02:38:08;;;;;;;6.97;2.90;;;;;;;;;;5030858;28;20044;-81
2024/01/10 02:40:34;;;;;;;4.00;2.53;;;;;;;;;;5050669;28;20108;-81
2024/01/10 02:42:59;;;;;;;10.82;4.60;;;;;;;;;;5040281;28;20048;-81
2024/01/10 02:45:26;;;;;;;8.45;3.72;;;;;;;;;;5050035;28;20024;-81
2024/01/10 02:47:52;;;;;;;7.13;3.83;;;;;;;;;;5053932;28;20053;-80
2024/01/10 02:50:21;;;;;;;13.25;4.80;;;;;;;;;;5055883;28;20044;-82
2024/01/10 02:52:53;;;;;;;4.93;2.47;;;;;;;;;;5055516;28;20084;-81
2024/01/10 02:55:23;;;;;;;7.53;4.07;;;;;;;;;;5055797;28;20042;-81
2024/01/10 02:57:48;;;;;;;11.88;4.15;;;;;;;;;;5037393;28;20029;-81
2024/01/10 03:00:14;;;;;;;5.03;3.03;;;;;;;;;;5031996;28;20048;-81
2024/01/10 03:02:39;;;;;;;11.82;4.38;;;;;;;;;;5031153;28;20110;-81
2024/01/10 03:05:05;;;;;;;4.50;2.80;;;;;;;;;;5029884;28;20041;-81
2024/01/10 03:07:30;;;;;;;9.73;4.07;;;;;;;;;;5032148;28;20047;-81
2024/01/10 03:09:55;;;;;;;5.82;2.97;;;;;;;;;;5031525;28;20028;-81
2024/01/10 03:12:21;;;;;;;10.98;5.38;;;;;;;;;;5047147;28;20036;-81
2024/01/10 03:14:46;;;;;;;5.72;3.22;;;;;;;;;;5030256;28;20564;-81
2024/01/10 03:17:11;;;;;;;13.07;4.55;;;;;;;;;;5030147;28;20037;-82
2024/01/10 03:19:43;;;;;;;6.22;3.20;;;;;;;;;;5029991;28;20092;-81
2024/01/10 03:22:09;;;;;;;7.22;3.42;;;;;;;;;;5029730;28;20026;-82
2024/01/10 03:24:35;;;;;;;8.30;4.20;;;;;;;;;;5032035;28;20060;-81
2024/01/10 03:27:00;;;;;;;8.15;3.67;;;;;;;;;;5029672;28;20080;-82
2024/01/10 03:29:25;;;;;;;3.80;2.10;;;;;;;;;;5030468;28;20034;-81
2024/01/10 03:31:51;;;;;;;11.85;5.10;;;;;;;;;;5030098;28;20030;-81
2024/01/10 03:34:17;;;;;;;6.72;3.58;;;;;;;;;;5029817;28;20033;-81
2024/01/10 03:36:43;;;;;;;10.25;4.22;;;;;;;;;;5029549;28;20109;-81
2024/01/10 03:39:09;;;;;;;10.23;4.38;;;;;;;;;;5011916;28;20065;-81
2024/01/10 03:41:34;;;;;;;6.70;3.70;;;;;;;;;;5009292;28;20452;-81
2024/01/10 03:43:59;;;;;;;8.95;3.78;;;;;;;;;;5028443;28;20041;-81
2024/01/10 03:46:25;;;;;;;12.13;4.13;;;;;;;;;;5030521;28;20099;-82
2024/01/10 03:48:51;;;;;;;8.65;4.78;;;;;;;;;;5009706;28;20034;-81
2024/01/10 03:51:17;;;;;;;10.52;4.57;;;;;;;;;;5010750;28;20042;-81
2024/01/10 03:53:43;;;;;;;9.32;4.68;;;;;;;;;;5011141;28;20034;-81
2024/01/10 03:56:10;;;;;;;9.77;4.05;;;;;;;;;;5010875;28;20048;-81
2024/01/10 03:58:35;;;;;;;13.32;5.88;;;;;;;;;;5011492;28;20091;-81
2024/01/10 04:01:07;;;;;;;6.28;3.88;;;;;;;;;;5011142;28;20021;-81
2024/01/10 04:03:33;;;;;;;12.95;5.47;;;;;;;;;;5010049;28;20032;-80
2024/01/10 04:05:58;;;;;;;8.88;4.30;;;;;;;;;;5026555;28;20144;-81
2024/01/10 04:08:24;;;;;;;8.00;4.75;;;;;;;;;;5011518;28;20049;-81
2024/01/10 04:10:50;;;;;;;13.02;5.07;;;;;;;;;;5015651;28;20526;-81
2024/01/10 04:13:15;;;;;;;8.43;3.88;;;;;;;;;;5021161;28;20061;-81
2024/01/10 04:15:40;;;;;;;8.15;3.75;;;;;;;;;;5016227;28;20685;-81
2024/01/10 04:18:06;;;;;;;12.00;5.22;;;;;;;;;;5025484;28;20684;-81
2024/01/10 04:20:32;;;;;;;10.18;3.88;;;;;;;;;;5050014;28;20465;-81
2024/01/10 04:23:01;;;;;;;11.50;4.78;;;;;;;;;;5032417;28;20028;-82
2024/01/10 04:25:32;;;;;;;3.60;2.47;;;;;;;;;;5034490;28;20050;-81
2024/01/10 04:27:59;;;;;;;11.27;5.07;;;;;;;;;;5049541;28;20040;-81
2024/01/10 04:30:32;;;;;;;9.93;3.83;;;;;;;;;;5039933;28;20518;-81
2024/01/10 04:32:58;;;;;;;;;;;;;;;;;;5041930;28;20048;-82
2024/01/10 04:35:23;;;;;;;14.10;5.68;;;;;;;;;;5048160;28;20317;-81
2024/01/10 04:37:48;;;;;;;10.88;4.95;;;;;;;;;;5040251;28;20063;-81
2024/01/10 04:40:14;;;;;;;8.00;3.50;;;;;;;;;;5028161;28;20422;-81
2024/01/10 04:42:39;;;;;;;8.40;4.50;;;;;;;;;;5021261;28;20107;-81
2024/01/10 04:45:07;;;;;;;14.73;4.90;;;;;;;;;;5010245;28;20117;-81
2024/01/10 04:47:32;;;;;;;8.48;4.00;;;;;;;;;;5008729;28;20994;-81
2024/01/10 04:49:58;;;;;;;10.35;4.47;;;;;;;;;;5009807;28;20119;-81
2024/01/10 04:52:23;;;;;;;16.00;5.72;;;;;;;;;;5010110;28;20045;-82
2024/01/10 04:54:49;;;;;;;11.00;5.40;;;;;;;;;;5010644;28;20125;-81
2024/01/10 04:57:15;;;;;;;10.90;3.50;;;;;;;;;;5008750;28;20069;-81
2024/01/10 04:59:41;;;;;;;8.98;4.85;;;;;;;;;;5010740;28;20141;-81
2024/01/10 05:02:07;;;;;;;8.32;4.45;;;;;;;;;;5018096;28;20069;-80
2024/01/10 05:04:32;;;;;;;3.05;2.75;;;;;;;;;;5025873;28;20048;-81
2024/01/10 05:06:57;;;;;;;17.50;7.20;;;;;;;;;;5031174;28;20029;-80
2024/01/10 05:09:23;;;;;;;14.35;4.22;;;;;;;;;;5010370;28;20430;-81
2024/01/10 05:11:51;;;;;;;8.57;3.42;;;;;;;;;;5008836;28;20037;-81
2024/01/10 05:14:19;;;;;;;11.23;4.95;;;;;;;;;;5008609;28;20593;-81
2024/01/10 05:16:45;;;;;;;14.45;6.78;;;;;;;;;;5024774;28;20042;-81
2024/01/10 05:19:10;;;;;;;11.48;4.80;;;;;;;;;;5007874;28;20148;-81
2024/01/10 05:21:36;;;;;;;15.48;6.05;;;;;;;;;;5009097;28;20033;-81
2024/01/10 05:24:01;;;;;;;9.73;4.32;;;;;;;;;;5009084;28;20077;-81
2024/01/10 05:26:26;;;;;;;8.68;4.15;;;;;;;;;;5007781;28;20058;-81
2024/01/10 05:28:51;;;;;;;14.82;5.80;;;;;;;;;;5007627;28;20057;-81
2024/01/10 05:31:17;;;;;;;6.05;2.78;;;;;;;;;;5008295;28;20507;-81
2024/01/10 05:33:42;;;;;;;9.65;3.47;;;;;;;;;;5010102;28;20032;-81
2024/01/10 05:36:11;;;;;;;12.38;4.82;;;;;;;;;;5017183;28;20037;-81
2024/01/10 05:38:37;;;;;;;8.18;4.40;;;;;;;;;;5011288;28;20053;-81
2024/01/10 05:41:02;;;;;;;11.45;5.25;;;;;;;;;;5009682;28;20041;-81
2024/01/10 05:43:28;;;;;;;12.00;4.82;;;;;;;;;;5023126;28;20049;-81
2024/01/10 05:45:53;;;;;;;8.00;3.83;;;;;;;;;;5027245;28;20405;-81
2024/01/10 05:48:18;;;;;;;15.82;4.78;;;;;;;;;;5009760;28;20050;-81
2024/01/10 05:50:44;;;;;;;8.35;3.65;;;;;;;;;;5007783;28;20594;-81
2024/01/10 05:53:10;;;;;;;12.45;4.85;;;;;;;;;;5008239;28;20912;-81
2024/01/10 05:55:36;;;;;;;8.93;3.88;;;;;;;;;;5010172;28;20109;-81
2024/01/10 05:58:02;;;;;;;12.77;5.07;;;;;;;;;;5009345;28;20025;-81
2024/01/10 06:00:28;;;;;;;8.45;4.63;;;;;;;;;;5024850;28;20048;-81
2024/01/10 06:02:53;;;;;;;15.02;6.45;;;;;;;;;;5009039;28;20060;-81
2024/01/10 06:05:19;;;;;;;8.77;3.92;;;;;;;;;;5008566;28;20058;-81
2024/01/10 06:07:44;;;;;;;10.70;4.03;;;;;;;;;;5008917;28;20034;-81
2024/01/10 06:10:09;;;;;;;13.50;6.15;;;;;;;;;;5006942;28;20113;-82
2024/01/10 06:12:35;;;;;;;11.85;5.53;;;;;;;;;;5014613;28;20025;-82
2024/01/10 06:15:01;;;;;;;9.25;4.65;;;;;;;;;;5028715;28;20057;-81
2024/01/10 06:17:26;;;;;;;7.22;3.63;;;;;;;;;;5016838;28;20052;-82
2024/01/10 06:19:52;;;;;;;10.85;4.63;;;;;;;;;;5013901;28;20046;-80
2024/01/10 06:22:17;;;;;;;18.98;6.25;;;;;;;;;;5019138;28;20053;-80
2024/01/10 06:24:45;;;;;;;10.52;4.95;;;;;;;;;;5016828;28;20026;-81
2024/01/10 06:27:11;;;;;;;10.07;4.90;;;;;;;;;;5007441;28;20042;-80
2024/01/10 06:29:36;;;;;;;12.90;5.05;;;;;;;;;;5007698;28;20565;-80
2024/01/10 06:32:03;;;;;;;12.02;4.90;;;;;;;;;;5009011;28;20038;-80
2024/01/10 06:34:29;;;;;;;9.27;3.78;;;;;;;;;;5007381;28;20064;-80
2024/01/10 06:36:54;;;;;;;6.55;3.33;;;;;;;;;;5008887;28;20056;-81
2024/01/10 06:39:20;;;;;;;15.07;5.75;;;;;;;;;;5024015;28;20021;-81
2024/01/10 06:41:48;;;;;;;14.05;6.28;;;;;;;;;;5025367;28;20121;-81
2024/01/10 06:44:14;;;;;;;15.77;5.22;;;;;;;;;;5005740;28;20046;-81
2024/01/10 06:46:40;;;;;;;14.00;6.15;;;;;;;;;;5003924;28;20112;-81
2024/01/10 06:49:07;;;;;;;4.07;2.67;;;;;;;;;;5005223;28;20018;-81
2024/01/10 06:51:32;;;;;;;7.95;4.25;;;;;;;;;;5005745;28;20025;-81
2024/01/10 06:54:03;;;;;;;11.35;3.95;;;;;;;;;;5005904;28;20030;-81
2024/01/10 06:56:32;;;;;;;10.60;5.13;;;;;;;;;;5005233;28;20045;-81
2024/01/10 06:58:58;;;;;;;13.75;5.53;;;;;;;;;;5005414;28;20095;-81
2024/01/10 07:01:23;;;;;;;12.18;5.00;;;;;;;;;;5005517;28;20034;-81
2024/01/10 07:03:49;;;;;;;8.27;3.88;;;;;;;;;;5003706;28;20036;-81
2024/01/10 07:06:15;;;;;;;18.13;6.85;;;;;;;;;;5005314;28;20352;-81
2024/01/10 07:08:42;;;;;;;6.07;3.13;;;;;;;;;;5003423;28;20546;-81
2024/01/10 07:11:08;;;;;;;17.63;8.65;;;;;;;;;;5004599;28;20377;-81
2024/01/10 07:13:33;;;;;;;14.73;5.85;;;;;;;;;;5006434;28;20044;-81
2024/01/10 07:16:01;;;;;;;18.83;8.23;;;;;;;;;;5008934;28;20502;-81
2024/01/10 07:18:28;;;;;;;11.40;5.60;;;;;;;;;;5007678;28;20030;-81
2024/01/10 07:20:53;;;;;;;14.80;6.68;;;;;;;;;;5008805;28;20058;-81
2024/01/10 07:23:18;;;;;;;17.88;5.97;;;;;;;;;;5007901;28;20084;-81
2024/01/10 07:25:44;;;;;;;20.20;8.68;;;;;;;;;;5009937;28;20065;-81
2024/01/10 07:28:09;;;;;;;13.80;6.28;;;;;;;;;;5009191;28;20125;-81
2024/01/10 07:30:35;;;;;;;14.15;4.15;;;;;;;;;;5009025;28;20538;-81
2024/01/10 07:33:01;;;;;;;20.83;6.57;;;;;;;;;;5007916;28;20048;-81
2024/01/10 07:35:27;;;;;;;11.10;4.50;;;;;;;;;;5007643;28;20042;-81
2024/01/10 07:37:52;;;;;;;8.45;4.40;;;;;;;;;;5019234;28;20045;-81
2024/01/10 07:40:18;;;;;;;6.55;3.20;;;;;;;;;;5038277;28;20037;-81
2024/01/10 07:42:43;;;;;;;17.95;5.65;;;;;;;;;;5044897;28;20035;-82
2024/01/10 07:45:09;;;;;;;7.05;4.57;;;;;;;;;;5037038;28;20579;-81
2024/01/10 07:47:37;;;;;;;12.18;4.20;;;;;;;;;;5027645;28;20045;-81
2024/01/10 07:50:14;;;;;;;13.25;5.15;;;;;;;;;;5028311;28;20041;-81
2024/01/10 07:52:40;;;;;;;10.05;4.40;;;;;;;;;;5017250;28;20068;-81
2024/01/10 07:55:08;;;;;;;13.25;5.55;;;;;;;;;;5007748;28;20037;-81
2024/01/10 07:57:34;;;;;;;8.57;3.85;;;;;;;;;;5019480;28;20144;-81
2024/01/10 07:59:59;;;;;;;9.80;4.13;;;;;;;;;;5025890;28;20140;-81
2024/01/10 08:02:25;;;;;;;8.70;3.30;;;;;;;;;;5027253;28;20037;-81
2024/01/10 08:04:51;;;;;;;9.18;4.85;;;;;;;;;;5027434;28;20052;-81
2024/01/10 08:07:16;;;;;;;14.57;6.35;;;;;;;;;;5027945;28;20038;-81
2024/01/10 08:09:42;;;;;;;12.15;4.50;;;;;;;;;;5027171;28;20040;-81
2024/01/10 08:12:07;;;;;;;7.75;4.30;;;;;;;;;;5021083;28;20037;-81
2024/01/10 08:14:33;;;;;;;8.52;4.78;;;;;;;;;;5026090;28;20037;-81
2024/01/10 08:16:58;;;;;;;11.48;5.30;;;;;;;;;;5014023;28;20152;-81
2024/01/10 08:19:25;;;;;;;10.27;5.15;;;;;;;;;;5006006;28;20044;-81
2024/01/10 08:21:51;;;;;;;13.65;6.10;;;;;;;;;;5007977;28;20036;-81
2024/01/10 08:24:17;;;;;;;6.60;3.72;;;;;;;;;;5006808;28;20049;-81
2024/01/10 08:26:42;;;;;;;13.27;4.88;;;;;;;;;;5022144;28;20052;-80
2024/01/10 08:29:08;;;;;;;15.45;6.30;;;;;;;;;;5025450;28;20075;-80
2024/01/10 08:31:33;;;;;;;12.77;5.00;;;;;;;;;;5027006;28;20064;-81
2024/01/10 08:33:58;;;;;;;7.93;4.50;;;;;;;;;;5026795;28;20033;-80
2024/01/10 08:36:24;;;;;;;11.98;5.57;;;;;;;;;;5027112;28;20055;-81
2024/01/10 08:38:50;;;;;;;8.88;4.50;;;;;;;;;;5024905;28;20087;-81
2024/01/10 08:41:16;;;;;;;16.17;6.57;;;;;;;;;;5025233;28;20140;-81
2024/01/10 08:43:41;;;;;;;11.65;5.57;;;;;;;;;;5024668;28;20069;-81
2024/01/10 08:46:11;;;;;;;14.02;6.25;;;;;;;;;;5027153;28;20029;-80
2024/01/10 08:48:36;;;;;;;6.70;4.13;;;;;;;;;;5025747;28;20107;-80
2024/01/10 08:51:02;;;;;;;8.50;3.92;;;;;;;;;;5026036;28;20037;-80
2024/01/10 08:53:27;;;;;;;13.90;4.82;;;;;;;;;;5027160;28;20144;-80
2024/01/10 08:55:53;;;;;;;17.10;7.22;;;;;;;;;;5024804;28;20566;-80
2024/01/10 08:58:18;;;;;;;14.35;5.30;;;;;;;;;;5047563;28;20051;-81
2024/01/10 09:00:43;;;;;;;17.13;7.32;;;;;;;;;;5037416;28;20029;-80
2024/01/10 09:03:09;;;;;;;9.55;5.22;;;;;;;;;;5032234;28;20144;-80
2024/01/10 09:05:34;;;;;;;15.35;5.50;;;;;;;;;;5024238;28;20041;-80
2024/01/10 09:08:00;;;;;;;8.93;4.32;;;;;;;;;;5006281;28;20555;-80
2024/01/10 09:10:28;;;;;;;11.85;5.80;;;;;;;;;;5011490;28;20121;-80
2024/01/10 09:12:54;;;;;;;11.73;4.80;;;;;;;;;;5022195;28;20030;-80
2024/01/10 09:15:19;;;;;;;12.00;4.10;;;;;;;;;;5027071;28;20017;-81
2024/01/10 09:17:45;;;;;;;13.05;6.60;;;;;;;;;;5011774;28;20053;-80
2024/01/10 09:20:12;;;;;;;12.13;6.13;;;;;;;;;;5023458;28;20040;-82
2024/01/10 09:22:38;;;;;;;18.73;7.07;;;;;;;;;;5027294;28;20625;-80
2024/01/10 09:25:05;;;;;;;12.75;5.68;;;;;;;;;;5026534;28;20132;-81
2024/01/10 09:27:32;;;;;;;14.75;6.07;;;;;;;;;;5027290;28;20414;-80
2024/01/10 09:29:57;;;;;;;19.33;5.63;;;;;;;;;;5025023;28;20067;-80
2024/01/10 09:32:22;;;;;;;13.55;5.57;;;;;;;;;;5007084;28;20045;-80
2024/01/10 09:34:48;;;;;;;17.58;7.55;;;;;;;;;;5021919;28;20026;-84
2024/01/10 09:37:13;;;;;;;12.40;6.55;;;;;;;;;;5011625;28;20037;-81
2024/01/10 09:39:39;;;;;;;14.20;4.88;;;;;;;;;;5026421;28;20528;-82
2024/01/10 09:42:04;;;;;;;11.18;5.30;;;;;;;;;;5039820;28;20062;-81
2024/01/10 09:44:30;;;;;;;8.73;5.10;;;;;;;;;;5026354;28;20021;-81
2024/01/10 09:46:56;;;;;;;16.27;6.35;;;;;;;;;;5026297;28;20032;-82
2024/01/10 09:49:21;;;;;;;13.48;5.50;;;;;;;;;;5025317;28;20044;-80
2024/01/10 09:51:48;;;;;;;22.17;9.55;;;;;;;;;;5041358;28;20059;-81
2024/01/10 09:54:15;;;;;;;10.82;4.60;;;;;;;;;;5025661;28;20771;-81
2024/01/10 09:56:41;;;;;;;9.15;4.20;;;;;;;;;;5024680;28;20096;-81
2024/01/10 09:59:10;;;;;;;10.70;5.32;;;;;;;;;;5026797;28;20036;-80
2024/01/10 10:01:38;;;;;;;17.20;7.78;;;;;;;;;;5026860;28;20040;-80
2024/01/10 10:04:05;;;;;;;16.70;5.63;;;;;;;;;;5026324;28;20466;-80
2024/01/10 10:06:31;;;;;;;13.05;4.70;;;;;;;;;;5024788;28;20595;-80
2024/01/10 10:08:56;;;;;;;10.77;5.18;;;;;;;;;;5008500;28;20114;-80
2024/01/10 10:11:21;;;;;;;13.50;5.85;;;;;;;;;;5005443;28;20034;-77
2024/01/10 10:13:47;;;;;;;14.45;6.05;;;;;;;;;;5006717;28;20092;-78
2024/01/10 10:16:12;;;;;;;10.65;5.93;;;;;;;;;;5007955;28;20042;-75
2024/01/10 10:18:40;;;;;;;12.07;6.00;;;;;;;;;;5022999;28;20064;-77
2024/01/10 10:21:11;;;;;;;8.60;4.97;;;;;;;;;;5030841;28;20037;-78
2024/01/10 10:23:40;;;;;;;18.67;5.93;;;;;;;;;;5023555;28;20030;-76
2024/01/10 10:26:20;;;;;;;22.00;6.95;;;;;;;;;;5026443;28;20029;-77
2024/01/10 10:28:50;;;;;;;18.23;7.20;;;;;;;;;;5031318;28;20053;-78
2024/01/10 10:31:20;;;;;;;19.77;5.28;;;;;;;;;;5047850;28;20041;-77
2024/01/10 10:33:48;;;;;;;14.27;6.13;;;;;;;;;;5048462;28;20105;-78
2024/01/10 10:36:17;;;;;;;9.57;5.53;;;;;;;;;;5063547;28;20053;-81
2024/01/10 10:38:47;;;;;;;18.88;8.55;;;;;;;;;;5042666;28;20053;-82
2024/01/10 10:41:14;;;;;;;4.85;2.67;;;;;;;;;;5025775;28;20029;-80
2024/01/10 10:43:40;;;;;;;35.95;8.18;;;;;;;;;;5029078;28;20427;-80
2024/01/10 10:46:09;;;;;;;12.77;6.03;;;;;;;;;;5031675;28;20037;-82
2024/01/10 10:48:35;;;;;;;16.00;6.70;;;;;;;;;;5031612;28;20108;-82
2024/01/10 10:51:08;;;;;;;17.17;6.45;;;;;;;;;;5031673;28;20080;-83
2024/01/10 10:53:35;;;;;;;;;;;;;;;;;;5032920;28;20024;-80
2024/01/10 10:56:03;;;;;;;13.15;6.70;;;;;;;;;;5029064;28;19916;-79
2024/01/10 10:58:30;;;;;;;17.50;7.70;;;;;;;;;;5021451;28;20042;-80
2024/01/10 11:00:57;;;;;;;16.85;6.90;;;;;;;;;;5020732;28;20069;-79
2024/01/10 11:03:24;;;;;;;18.83;6.97;;;;;;;;;;5024480;28;20151;-79
2024/01/10 11:05:51;;;;;;;19.60;7.78;;;;;;;;;;5028057;28;20076;-78
2024/01/10 11:08:19;;;;;;;20.70;9.35;;;;;;;;;;5027815;28;20029;-75
2024/01/10 11:10:46;;;;;;;25.88;10.77;;;;;;;;;;5029235;28;20037;-76
2024/01/10 11:13:32;;;;;;;17.75;7.20;;;;;;;;;;5029016;28;20041;-76
2024/01/10 11:16:07;;;;;;;18.73;6.80;;;;;;;;;;5028603;28;20045;-80
2024/01/10 11:18:35;;;;;;;20.33;7.32;;;;;;;;;;5027489;28;20046;-81
2024/01/10 11:21:20;;;;;;;8.23;4.18;;;;;;;;;;5027348;28;20050;-81
2024/01/10 11:23:56;;;;;;;25.33;9.40;;;;;;;;;;5028926;28;20057;-81
2024/01/10 11:26:21;;;;;;;12.40;6.18;;;;;;;;;;5027766;28;20034;-81
2024/01/10 11:28:47;;;;;;;8.88;4.00;;;;;;;;;;5028477;28;20038;-81
2024/01/10 11:31:13;;;;;;;13.27;6.80;;;;;;;;;;5029186;28;20044;-81
2024/01/10 11:33:42;;;;;;;15.02;6.50;;;;;;;;;;5027104;28;20041;-81
2024/01/10 11:36:18;;;;;;;13.27;6.32;;;;;;;;;;5028537;28;20037;-80
2024/01/10 11:38:53;;;;;;;18.42;6.93;;;;;;;;;;5025406;28;20050;-81
2024/01/10 11:41:29;;;;;;;14.75;7.03;;;;;;;;;;5027620;28;20025;-80
2024/01/10 11:44:29;;;;;;;18.42;6.68;;;;;;;;;;5035254;28;20042;-77
2024/01/10 11:46:58;;;;;;;11.85;6.13;;;;;;;;;;5048056;28;20061;-80
2024/01/10 11:49:26;;;;;;;15.85;7.32;;;;;;;;;;5033823;28;20093;-81
2024/01/10 11:52:04;;;;;;;17.48;6.90;;;;;;;;;;5034948;28;20122;-82
2024/01/10 11:54:36;;;;;;;15.02;6.68;;;;;;;;;;5035786;28;20033;-82
2024/01/10 11:57:02;;;;;;;16.40;5.87;;;;;;;;;;5032217;28;20053;-81
2024/01/10 11:59:30;;;;;;;14.48;6.68;;;;;;;;;;5009599;28;20265;-79
2024/01/10 12:01:55;;;;;;;17.45;6.60;;;;;;;;;;5013458;28;20029;-79
2024/01/10 12:04:21;;;;;;;12.30;4.68;;;;;;;;;;5017925;28;20046;-79
2024/01/10 12:06:47;;;;;;;17.25;7.32;;;;;;;;;;5023672;28;20050;-80
2024/01/10 12:09:13;;;;;;;24.92;8.77;;;;;;;;;;5032875;28;20038;-80
2024/01/10 12:11:44;;;;;;;20.67;7.78;;;;;;;;;;5040000;28;20391;-80
2024/01/10 12:14:09;;;;;;;25.02;8.07;;;;;;;;;;5013145;28;20634;-80
2024/01/10 12:16:35;;;;;;;37.25;11.90;;;;;;;;;;5010592;28;20040;-80
2024/01/10 12:19:00;;;;;;;19.25;6.88;;;;;;;;;;5010296;28;20038;-80
2024/01/10 12:21:26;;;;;;;13.32;6.53;;;;;;;;;;5010064;28;20077;-80
2024/01/10 12:23:55;;;;;;;29.00;10.25;;;;;;;;;;5016456;28;20100;-80
2024/01/10 12:26:23;;;;;;;16.92;7.55;;;;;;;;;;5034608;28;20034;-81
2024/01/10 12:29:06;;;;;;;17.95;7.53;;;;;;;;;;5033799;28;20009;-81
2024/01/10 12:31:40;;;;;;;21.00;7.75;;;;;;;;;;5032052;28;20093;-80
2024/01/10 12:34:09;;;;;;;20.23;7.75;;;;;;;;;;5030186;28;20022;-80
2024/01/10 12:36:35;;;;;;;22.50;8.77;;;;;;;;;;5014458;28;20092;-80
2024/01/10 12:39:01;;;;;;;23.65;8.48;;;;;;;;;;5029793;28;20037;-80
2024/01/10 12:41:27;;;;;;;22.30;7.63;;;;;;;;;;5029704;28;20040;-79
2024/01/10 12:43:54;;;;;;;14.45;6.80;;;;;;;;;;5013338;28;20030;-81
2024/01/10 12:46:20;;;;;;;19.77;6.43;;;;;;;;;;5009617;28;20038;-80
2024/01/10 12:49:06;;;;;;;15.90;7.13;;;;;;;;;;5016177;28;20129;-80
2024/01/10 12:51:39;;;;;;;12.18;5.13;;;;;;;;;;5039745;28;20084;-80
2024/01/10 12:54:07;;;;;;;19.60;7.30;;;;;;;;;;5032007;28;20038;-79
2024/01/10 12:56:35;;;;;;;16.52;7.40;;;;;;;;;;5031490;28;20026;-79
2024/01/10 12:59:01;;;;;;;24.52;9.18;;;;;;;;;;5033163;28;20026;-79
2024/01/10 13:01:27;;;;;;;18.77;6.60;;;;;;;;;;5003170;28;20499;-79
2024/01/10 13:03:53;;;;;;;14.68;6.53;;;;;;;;;;5009681;28;20126;-80
2024/01/10 13:06:19;;;;;;;19.77;8.82;;;;;;;;;;5008879;28;20052;-79
2024/01/10 13:08:48;;;;;;;18.98;7.60;;;;;;;;;;5008065;28;20527;-79
2024/01/10 13:11:14;;;;;;;23.27;7.78;;;;;;;;;;5008949;28;20485;-79
2024/01/10 13:13:41;;;;;;;13.68;7.68;;;;;;;;;;5008880;28;20045;-79
2024/01/10 13:16:06;;;;;;;16.00;6.90;;;;;;;;;;5008234;28;20530;-79
2024/01/10 13:18:32;;;;;;;18.15;7.97;;;;;;;;;;5010166;28;20503;-79
2024/01/10 13:20:57;;;;;;;20.48;7.32;;;;;;;;;;5010007;28;20046;-79
2024/01/10 13:23:24;;;;;;;21.73;8.07;;;;;;;;;;5008609;28;20025;-78
2024/01/10 13:25:50;;;;;;;18.00;7.57;;;;;;;;;;5010452;28;20494;-80
2024/01/10 13:28:15;;;;;;;18.27;7.47;;;;;;;;;;5008607;28;20124;-77
2024/01/10 13:30:42;;;;;;;17.85;7.70;;;;;;;;;;5023333;28;20136;-77
2024/01/10 13:33:11;;;;;;;19.80;7.88;;;;;;;;;;5008095;28;20064;-77
2024/01/10 13:35:38;;;;;;;18.98;8.38;;;;;;;;;;5008854;28;20026;-77
2024/01/10 13:38:04;;;;;;;23.77;8.00;;;;;;;;;;5021020;28;20625;-77
2024/01/10 13:40:31;;;;;;;16.80;6.63;;;;;;;;;;5025834;28;20095;-77
2024/01/10 13:43:02;;;;;;;19.30;7.43;;;;;;;;;;5035930;28;20072;-76
2024/01/10 13:45:39;;;;;;;18.27;6.93;;;;;;;;;;5037783;28;20080;-76
2024/01/10 13:48:05;;;;;;;21.25;8.48;;;;;;;;;;5039914;28;20045;-76
2024/01/10 13:50:32;;;;;;;21.42;7.32;;;;;;;;;;5040075;28;20029;-76
2024/01/10 13:52:58;;;;;;;24.10;7.50;;;;;;;;;;5068753;28;20021;-76
2024/01/10 13:55:24;;;;;;;18.80;6.70;;;;;;;;;;5043319;28;20388;-77
2024/01/10 13:57:50;;;;;;;18.05;6.80;;;;;;;;;;5026630;28;20115;-77
2024/01/10 14:00:16;;;;;;;14.00;6.47;;;;;;;;;;5027466;28;20072;-76
2024/01/10 14:02:42;;;;;;;19.08;7.53;;;;;;;;;;5018647;28;20045;-76
2024/01/10 14:05:09;;;;;;;16.60;6.72;;;;;;;;;;5005025;28;20557;-77
2024/01/10 14:07:35;;;;;;;19.67;7.22;;;;;;;;;;5026273;28;20116;-77
2024/01/10 14:10:01;;;;;;;25.42;9.07;;;;;;;;;;5026848;28;20463;-77
2024/01/10 14:12:28;;;;;;;17.67;7.40;;;;;;;;;;5028691;28;20033;-77
2024/01/10 14:14:54;;;;;;;18.65;6.93;;;;;;;;;;5027503;28;20029;-78
2024/01/10 14:17:19;;;;;;;22.38;6.50;;;;;;;;;;5028598;28;20083;-77
2024/01/10 14:19:45;;;;;;;19.55;6.65;;;;;;;;;;5030485;28;20034;-78
2024/01/10 14:22:10;;;;;;;16.38;6.85;;;;;;;;;;5048543;28;20030;-78
2024/01/10 14:24:36;;;;;;;24.23;9.65;;;;;;;;;;5033504;28;20154;-78
2024/01/10 14:27:01;;;;;;;26.40;10.77;;;;;;;;;;5033892;28;20030;-78
2024/01/10 14:29:27;;;;;;;33.30;11.77;;;;;;;;;;5034476;28;20053;-79